sensor_id;sensor_type;location;lat;lon;timestamp;pressure;altitude;pressure_sealevel;temperature;humidity
69187;BME280;56301;56.864;60.554;2022-08-01T00:01:16;98214.22;;;24.32;58.88
69187;BME280;56301;56.864;60.554;2022-08-01T00:03:39;98218.78;;;24.32;58.89
69187;BME280;56301;56.864;60.554;2022-08-01T00:06:01;98220.44;;;24.33;58.97
69187;BME280;56301;56.864;60.554;2022-08-01T00:08:23;98219.63;;;24.32;58.51
69187;BME280;56301;56.864;60.554;2022-08-01T00:10:46;98216.91;;;24.32;58.66
69187;BME280;56301;56.864;60.554;2022-08-01T00:13:08;98218.78;;;24.32;58.70
69187;BME280;56301;56.864;60.554;2022-08-01T00:15:31;98219.81;;;24.31;58.82
69187;BME280;56301;56.864;60.554;2022-08-01T00:17:53;98223.38;;;24.31;58.78
69187;BME280;56301;56.864;60.554;2022-08-01T00:20:16;98222.31;;;24.32;58.57
69187;BME280;56301;56.864;60.554;2022-08-01T00:22:38;98226.06;;;24.31;58.92
69187;BME280;56301;56.864;60.554;2022-08-01T00:25:01;98225.22;;;24.31;58.88
69187;BME280;56301;56.864;60.554;2022-08-01T00:27:23;98219.63;;;24.32;58.07
69187;BME280;56301;56.864;60.554;2022-08-01T00:29:48;98216.09;;;24.32;58.31
69187;BME280;56301;56.864;60.554;2022-08-01T00:32:13;98220.44;;;24.33;58.85
69187;BME280;56301;56.864;60.554;2022-08-01T00:34:35;98219.22;;;24.35;58.69
69187;BME280;56301;56.864;60.554;2022-08-01T00:36:58;98215.69;;;24.35;58.36
69187;BME280;56301;56.864;60.554;2022-08-01T00:39:20;98212.16;;;24.34;58.18
69187;BME280;56301;56.864;60.554;2022-08-01T00:41:43;98214.66;;;24.36;58.12
69187;BME280;56301;56.864;60.554;2022-08-01T00:44:05;98219.06;;;24.37;58.40
69187;BME280;56301;56.864;60.554;2022-08-01T00:46:27;98220.72;;;24.38;58.19
69187;BME280;56301;56.864;60.554;2022-08-01T00:48:50;98222.38;;;24.39;57.81
69187;BME280;56301;56.864;60.554;2022-08-01T00:51:13;98222.38;;;24.39;58.23
69187;BME280;56301;56.864;60.554;2022-08-01T00:53:35;98224.25;;;24.38;57.86
69187;BME280;56301;56.864;60.554;2022-08-01T00:55:58;98222.59;;;24.37;58.35
69187;BME280;56301;56.864;60.554;2022-08-01T00:58:20;98221.56;;;24.38;58.37
69187;BME280;56301;56.864;60.554;2022-08-01T01:00:42;98227.16;;;24.37;58.44
69187;BME280;56301;56.864;60.554;2022-08-01T01:03:05;98232.56;;;24.37;58.32
69187;BME280;56301;56.864;60.554;2022-08-01T01:05:27;98229.88;;;24.37;57.86
69187;BME280;56301;56.864;60.554;2022-08-01T01:08:02;98218.41;;;24.35;57.75
69187;BME280;56301;56.864;60.554;2022-08-01T01:10:40;98220.06;;;24.36;58.30
69187;BME280;56301;56.864;60.554;2022-08-01T01:13:06;98227.16;;;24.37;58.27
69187;BME280;56301;56.864;60.554;2022-08-01T01:20:36;98218.41;;;24.35;58.26
69187;BME280;56301;56.864;60.554;2022-08-01T01:25:41;98225.28;;;24.37;57.93
69187;BME280;56301;56.864;60.554;2022-08-01T01:30:46;98228.00;;;24.37;57.41
69187;BME280;56301;56.864;60.554;2022-08-01T01:33:11;98234.25;;;24.38;58.07
69187;BME280;56301;56.864;60.554;2022-08-01T01:35:35;98238.81;;;24.37;57.96
69187;BME280;56301;56.864;60.554;2022-08-01T01:38:04;98230.72;;;24.37;57.68
69187;BME280;56301;56.864;60.554;2022-08-01T01:40:28;98238.81;;;24.37;57.51
69187;BME280;56301;56.864;60.554;2022-08-01T01:42:52;98242.34;;;24.38;58.03
69187;BME280;56301;56.864;60.554;2022-08-01T01:45:17;98240.69;;;24.37;58.02
69187;BME280;56301;56.864;60.554;2022-08-01T01:47:40;98240.69;;;24.37;57.72
69187;BME280;56301;56.864;60.554;2022-08-01T01:50:03;98246.09;;;24.37;58.13
69187;BME280;56301;56.864;60.554;2022-08-01T01:52:26;98245.44;;;24.35;57.58
69187;BME280;56301;56.864;60.554;2022-08-01T01:54:50;98252.50;;;24.36;57.92
69187;BME280;56301;56.864;60.554;2022-08-01T01:57:12;98247.94;;;24.36;58.22
69187;BME280;56301;56.864;60.554;2022-08-01T01:59:37;98236.28;;;24.36;57.39
69187;BME280;56301;56.864;60.554;2022-08-01T02:02:02;98246.28;;;24.35;57.31
69187;BME280;56301;56.864;60.554;2022-08-01T02:04:25;98243.41;;;24.37;57.86
69187;BME280;56301;56.864;60.554;2022-08-01T02:06:50;98245.44;;;24.35;57.94
69187;BME280;56301;56.864;60.554;2022-08-01T02:09:16;98250.47;;;24.38;57.13
69187;BME280;56301;56.864;60.554;2022-08-01T02:11:39;98241.53;;;24.37;58.33
69187;BME280;56301;56.864;60.554;2022-08-01T02:14:02;98248.81;;;24.37;57.63
69187;BME280;56301;56.864;60.554;2022-08-01T02:16:26;98247.09;;;24.36;57.71
69187;BME280;56301;56.864;60.554;2022-08-01T02:18:50;98255.03;;;24.37;57.76
69187;BME280;56301;56.864;60.554;2022-08-01T02:21:13;98249.63;;;24.37;57.71
69187;BME280;56301;56.864;60.554;2022-08-01T02:23:38;98245.22;;;24.36;57.68
69187;BME280;56301;56.864;60.554;2022-08-01T02:26:01;98245.88;;;24.38;57.01
69187;BME280;56301;56.864;60.554;2022-08-01T02:28:25;98246.94;;;24.37;57.78
69187;BME280;56301;56.864;60.554;2022-08-01T02:30:50;98245.06;;;24.38;57.45
69187;BME280;56301;56.864;60.554;2022-08-01T02:35:39;98247.75;;;24.38;57.51
69187;BME280;56301;56.864;60.554;2022-08-01T02:38:03;98246.72;;;24.39;57.49
69187;BME280;56301;56.864;60.554;2022-08-01T02:40:28;98240.31;;;24.40;57.06
69187;BME280;56301;56.864;60.554;2022-08-01T02:42:51;98232.19;;;24.40;57.45
69187;BME280;56301;56.864;60.554;2022-08-01T02:45:14;98232.03;;;24.41;57.39
69187;BME280;56301;56.864;60.554;2022-08-01T02:47:40;98231.81;;;24.43;56.73
69187;BME280;56301;56.864;60.554;2022-08-01T02:50:04;98237.22;;;24.43;57.46
69187;BME280;56301;56.864;60.554;2022-08-01T02:52:27;98236.38;;;24.42;56.94
69187;BME280;56301;56.864;60.554;2022-08-01T02:54:51;98247.22;;;24.42;57.63
69187;BME280;56301;56.864;60.554;2022-08-01T02:57:16;98238.06;;;24.43;57.53
69187;BME280;56301;56.864;60.554;2022-08-01T02:59:39;98238.06;;;24.43;57.57
69187;BME280;56301;56.864;60.554;2022-08-01T03:02:02;98243.53;;;24.50;56.88
69187;BME280;56301;56.864;60.554;2022-08-01T03:04:25;98243.34;;;24.52;57.53
69187;BME280;56301;56.864;60.554;2022-08-01T03:06:48;98243.06;;;24.46;57.08
69187;BME280;56301;56.864;60.554;2022-08-01T03:09:12;98239.38;;;24.47;57.01
69187;BME280;56301;56.864;60.554;2022-08-01T03:11:35;98233.75;;;24.49;56.74
69187;BME280;56301;56.864;60.554;2022-08-01T03:14:01;98240.19;;;24.48;56.87
69187;BME280;56301;56.864;60.554;2022-08-01T03:16:24;98241.09;;;24.55;56.56
69187;BME280;56301;56.864;60.554;2022-08-01T03:18:48;98250.47;;;24.59;56.44
69187;BME280;56301;56.864;60.554;2022-08-01T03:21:11;98246.09;;;24.58;56.38
69187;BME280;56301;56.864;60.554;2022-08-01T03:23:35;98239.41;;;24.54;56.98
69187;BME280;56301;56.864;60.554;2022-08-01T03:25:58;98244.81;;;24.54;56.78
69187;BME280;56301;56.864;60.554;2022-08-01T03:28:22;98243.78;;;24.55;56.77
69187;BME280;56301;56.864;60.554;2022-08-01T03:30:46;98252.91;;;24.54;56.84
69187;BME280;56301;56.864;60.554;2022-08-01T03:33:09;98249.59;;;24.52;57.02
69187;BME280;56301;56.864;60.554;2022-08-01T03:35:42;98251.63;;;24.50;57.22
69187;BME280;56301;56.864;60.554;2022-08-01T03:38:08;98243.53;;;24.50;56.88
69187;BME280;56301;56.864;60.554;2022-08-01T03:40:32;98251.47;;;24.52;56.61
69187;BME280;56301;56.864;60.554;2022-08-01T03:43:18;98245.59;;;24.48;57.52
69187;BME280;56301;56.864;60.554;2022-08-01T03:45:41;98257.63;;;24.45;57.64
69187;BME280;56301;56.864;60.554;2022-08-01T03:48:13;98251.41;;;24.45;57.62
69187;BME280;56301;56.864;60.554;2022-08-01T03:50:36;98260.56;;;24.44;57.63
69187;BME280;56301;56.864;60.554;2022-08-01T03:53:02;98265.97;;;24.44;57.00
69187;BME280;56301;56.864;60.554;2022-08-01T03:55:24;98270.72;;;24.42;57.09
69187;BME280;56301;56.864;60.554;2022-08-01T03:57:47;98262.59;;;24.42;57.26
69187;BME280;56301;56.864;60.554;2022-08-01T04:00:10;98263.63;;;24.41;56.67
69187;BME280;56301;56.864;60.554;2022-08-01T04:02:35;98266.91;;;24.00;55.56
69187;BME280;56301;56.864;60.554;2022-08-01T04:04:58;98267.28;;;23.46;54.87
69187;BME280;56301;56.864;60.554;2022-08-01T04:07:25;98271.75;;;23.39;55.88
69187;BME280;56301;56.864;60.554;2022-08-01T04:09:47;98276.69;;;23.35;55.81
69187;BME280;56301;56.864;60.554;2022-08-01T04:14:32;98268.97;;;23.17;56.22
69187;BME280;56301;56.864;60.554;2022-08-01T04:16:55;98274.81;;;23.21;57.06
69187;BME280;56301;56.864;60.554;2022-08-01T04:19:17;98270.72;;;23.25;57.33
69187;BME280;56301;56.864;60.554;2022-08-01T04:21:39;98271.19;;;22.99;55.97
69187;BME280;56301;56.864;60.554;2022-08-01T04:24:07;98272.59;;;22.87;55.04
69187;BME280;56301;56.864;60.554;2022-08-01T04:26:32;98273.44;;;22.87;55.50
69187;BME280;56301;56.864;60.554;2022-08-01T04:28:54;98273.94;;;23.05;56.27
69187;BME280;56301;56.864;60.554;2022-08-01T04:31:17;98283.66;;;23.29;57.82
69187;BME280;56301;56.864;60.554;2022-08-01T04:33:40;98281.31;;;23.41;58.18
69187;BME280;56301;56.864;60.554;2022-08-01T04:36:04;98282.25;;;23.48;58.24
69187;BME280;56301;56.864;60.554;2022-08-01T04:38:28;98279.00;;;23.53;58.95
69187;BME280;56301;56.864;60.554;2022-08-01T04:40:52;98289.03;;;23.59;59.46
69187;BME280;56301;56.864;60.554;2022-08-01T04:43:16;98273.50;;;23.61;60.08
69187;BME280;56301;56.864;60.554;2022-08-01T04:45:39;98282.22;;;23.63;60.05
69187;BME280;56301;56.864;60.554;2022-08-01T04:48:01;98279.53;;;23.63;60.22
69187;BME280;56301;56.864;60.554;2022-08-01T04:50:27;98288.22;;;23.59;60.57
69187;BME280;56301;56.864;60.554;2022-08-01T04:52:49;98286.81;;;23.63;60.29
69187;BME280;56301;56.864;60.554;2022-08-01T04:55:12;98278.00;;;23.69;60.09
69187;BME280;56301;56.864;60.554;2022-08-01T04:57:34;98275.91;;;23.71;60.99
69187;BME280;56301;56.864;60.554;2022-08-01T04:59:58;98277.78;;;23.70;60.76
69187;BME280;56301;56.864;60.554;2022-08-01T05:02:21;98279.06;;;23.74;60.04
69187;BME280;56301;56.864;60.554;2022-08-01T05:04:43;98275.53;;;23.74;60.42
69187;BME280;56301;56.864;60.554;2022-08-01T05:07:06;98268.47;;;23.73;61.13
69187;BME280;56301;56.864;60.554;2022-08-01T05:09:28;98274.78;;;23.80;60.71
69187;BME280;56301;56.864;60.554;2022-08-01T05:11:51;98282.06;;;23.80;60.80
69187;BME280;56301;56.864;60.554;2022-08-01T05:14:13;98275.47;;;23.82;61.25
69187;BME280;56301;56.864;60.554;2022-08-01T05:16:36;98266.50;;;23.82;60.33
69187;BME280;56301;56.864;60.554;2022-08-01T05:18:58;98274.41;;;23.83;60.98
69187;BME280;56301;56.864;60.554;2022-08-01T05:21:20;98276.53;;;23.88;60.53
69187;BME280;56301;56.864;60.554;2022-08-01T05:23:43;98281.38;;;23.92;60.73
69187;BME280;56301;56.864;60.554;2022-08-01T05:26:05;98279.50;;;23.93;60.88
69187;BME280;56301;56.864;60.554;2022-08-01T05:28:28;98278.50;;;23.94;60.88
69187;BME280;56301;56.864;60.554;2022-08-01T05:30:50;98275.59;;;23.95;61.34
69187;BME280;56301;56.864;60.554;2022-08-01T05:33:12;98276.25;;;23.97;60.89
69187;BME280;56301;56.864;60.554;2022-08-01T05:35:35;98281.28;;;24.00;60.68
69187;BME280;56301;56.864;60.554;2022-08-01T05:37:57;98284.81;;;24.01;60.84
69187;BME280;56301;56.864;60.554;2022-08-01T05:40:20;98281.91;;;24.02;59.85
69187;BME280;56301;56.864;60.554;2022-08-01T05:42:42;98286.09;;;24.05;60.15
69187;BME280;56301;56.864;60.554;2022-08-01T05:45:04;98285.06;;;24.06;59.96
69187;BME280;56301;56.864;60.554;2022-08-01T05:47:27;98289.25;;;24.09;59.63
69187;BME280;56301;56.864;60.554;2022-08-01T05:49:49;98284.69;;;24.09;59.52
69187;BME280;56301;56.864;60.554;2022-08-01T05:52:12;98285.16;;;24.13;59.17
69187;BME280;56301;56.864;60.554;2022-08-01T05:54:34;98281.84;;;24.17;59.51
69187;BME280;56301;56.864;60.554;2022-08-01T05:56:57;98278.56;;;24.22;59.29
69187;BME280;56301;56.864;60.554;2022-08-01T05:59:19;98271.81;;;24.33;59.36
69187;BME280;56301;56.864;60.554;2022-08-01T06:01:42;98273.91;;;24.31;59.46
69187;BME280;56301;56.864;60.554;2022-08-01T06:04:04;98274.28;;;24.27;58.68
69187;BME280;56301;56.864;60.554;2022-08-01T06:06:27;98279.03;;;24.25;58.97
69187;BME280;56301;56.864;60.554;2022-08-01T06:08:49;98282.16;;;24.22;58.94
69187;BME280;56301;56.864;60.554;2022-08-01T06:11:11;98287.72;;;24.21;58.62
69187;BME280;56301;56.864;60.554;2022-08-01T06:13:34;98294.38;;;24.18;59.05
69187;BME280;56301;56.864;60.554;2022-08-01T06:15:56;98296.03;;;24.19;59.02
69187;BME280;56301;56.864;60.554;2022-08-01T06:18:19;98292.28;;;24.20;59.13
69187;BME280;56301;56.864;60.554;2022-08-01T06:20:42;98292.50;;;24.19;58.87
69187;BME280;56301;56.864;60.554;2022-08-01T06:23:04;98295.66;;;24.22;58.72
69187;BME280;56301;56.864;60.554;2022-08-01T06:25:27;98285.94;;;24.28;57.89
69187;BME280;56301;56.864;60.554;2022-08-01T06:27:49;98283.09;;;24.36;58.19
69187;BME280;56301;56.864;60.554;2022-08-01T06:30:11;98285.06;;;24.42;57.18
69187;BME280;56301;56.864;60.554;2022-08-01T06:32:34;98282.44;;;24.49;56.25
69187;BME280;56301;56.864;60.554;2022-08-01T06:34:56;98288.19;;;24.24;55.03
69187;BME280;56301;56.864;60.554;2022-08-01T06:37:19;98279.00;;;23.83;53.93
69187;BME280;56301;56.864;60.554;2022-08-01T06:39:41;98292.31;;;23.54;53.20
69187;BME280;56301;56.864;60.554;2022-08-01T06:42:03;98295.50;;;23.28;52.25
69187;BME280;56301;56.864;60.554;2022-08-01T06:44:26;98285.31;;;23.01;52.02
69187;BME280;56301;56.864;60.554;2022-08-01T06:46:48;98289.78;;;23.09;54.57
69187;BME280;56301;56.864;60.554;2022-08-01T06:49:11;98286.16;;;23.16;54.91
69187;BME280;56301;56.864;60.554;2022-08-01T06:51:33;98296.41;;;23.21;55.46
69187;BME280;56301;56.864;60.554;2022-08-01T06:53:55;98290.56;;;23.17;56.22
69187;BME280;56301;56.864;60.554;2022-08-01T06:56:18;98283.44;;;23.16;55.88
69187;BME280;56301;56.864;60.554;2022-08-01T06:58:40;98289.72;;;23.32;57.65
69187;BME280;56301;56.864;60.554;2022-08-01T07:01:03;98287.56;;;23.42;58.09
69187;BME280;56301;56.864;60.554;2022-08-01T07:03:26;98290.81;;;23.52;58.19
69187;BME280;56301;56.864;60.554;2022-08-01T07:05:48;98294.81;;;23.56;58.78
69187;BME280;56301;56.864;60.554;2022-08-01T07:08:11;98284.00;;;23.56;59.14
69187;BME280;56301;56.864;60.554;2022-08-01T07:10:33;98289.03;;;23.59;59.92
69187;BME280;56301;56.864;60.554;2022-08-01T07:12:56;98287.00;;;23.61;59.70
69187;BME280;56301;56.864;60.554;2022-08-01T07:15:18;98291.56;;;23.61;60.76
69187;BME280;56301;56.864;60.554;2022-08-01T07:17:41;98289.03;;;23.59;60.10
69187;BME280;56301;56.864;60.554;2022-08-01T07:20:04;98284.66;;;23.58;60.40
69187;BME280;56301;56.864;60.554;2022-08-01T07:22:27;98283.63;;;23.59;60.25
69187;BME280;56301;56.864;60.554;2022-08-01T07:24:49;98288.47;;;23.64;59.66
69187;BME280;56301;56.864;60.554;2022-08-01T07:27:12;98285.88;;;23.70;59.10
69187;BME280;56301;56.864;60.554;2022-08-01T07:29:34;98283.09;;;23.78;58.67
69187;BME280;56301;56.864;60.554;2022-08-01T07:31:57;98287.72;;;23.85;58.48
69187;BME280;56301;56.864;60.554;2022-08-01T07:34:20;98281.13;;;23.87;57.43
69187;BME280;56301;56.864;60.554;2022-08-01T07:36:42;98276.16;;;23.91;56.99
69187;BME280;56301;56.864;60.554;2022-08-01T07:39:05;98279.03;;;23.89;56.53
69187;BME280;56301;56.864;60.554;2022-08-01T07:41:27;98281.75;;;23.89;56.86
69187;BME280;56301;56.864;60.554;2022-08-01T07:43:50;98290.97;;;23.95;56.42
69187;BME280;56301;56.864;60.554;2022-08-01T07:46:12;98285.81;;;24.00;55.76
69187;BME280;56301;56.864;60.554;2022-08-01T07:48:37;98290.22;;;24.01;56.23
69187;BME280;56301;56.864;60.554;2022-08-01T07:51:00;98282.13;;;24.01;56.47
69187;BME280;56301;56.864;60.554;2022-08-01T07:53:22;98285.44;;;24.03;55.67
69187;BME280;56301;56.864;60.554;2022-08-01T07:55:45;98285.72;;;24.08;55.63
69187;BME280;56301;56.864;60.554;2022-08-01T07:58:07;98289.72;;;24.12;55.88
69187;BME280;56301;56.864;60.554;2022-08-01T08:00:30;98283.56;;;24.18;55.19
69187;BME280;56301;56.864;60.554;2022-08-01T08:02:52;98284.19;;;24.20;55.37
69187;BME280;56301;56.864;60.554;2022-08-01T08:05:15;98285.03;;;24.21;55.38
69187;BME280;56301;56.864;60.554;2022-08-01T08:07:37;98288.47;;;24.30;55.03
69187;BME280;56301;56.864;60.554;2022-08-01T08:10:00;98287.56;;;24.22;54.33
69187;BME280;56301;56.864;60.554;2022-08-01T08:12:22;98281.84;;;24.17;54.89
69187;BME280;56301;56.864;60.554;2022-08-01T08:14:45;98284.41;;;24.19;54.58
69187;BME280;56301;56.864;60.554;2022-08-01T08:17:07;98281.47;;;24.20;54.98
69187;BME280;56301;56.864;60.554;2022-08-01T08:19:30;98287.34;;;24.24;54.89
69187;BME280;56301;56.864;60.554;2022-08-01T08:21:52;98281.72;;;24.25;54.62
69187;BME280;56301;56.864;60.554;2022-08-01T08:24:15;98286.50;;;24.23;54.38
69187;BME280;56301;56.864;60.554;2022-08-01T08:26:37;98284.63;;;24.24;55.03
69187;BME280;56301;56.864;60.554;2022-08-01T08:28:59;98281.94;;;24.24;54.88
69187;BME280;56301;56.864;60.554;2022-08-01T08:31:22;98285.69;;;24.23;54.78
69187;BME280;56301;56.864;60.554;2022-08-01T08:33:44;98288.56;;;24.21;54.59
69187;BME280;56301;56.864;60.554;2022-08-01T08:36:07;98285.84;;;24.21;55.16
69187;BME280;56301;56.864;60.554;2022-08-01T08:38:29;98283.16;;;24.21;54.86
69187;BME280;56301;56.864;60.554;2022-08-01T08:40:51;98291.09;;;24.23;54.90
69187;BME280;56301;56.864;60.554;2022-08-01T08:43:14;98298.38;;;24.22;54.83
69187;BME280;56301;56.864;60.554;2022-08-01T08:45:37;98301.06;;;24.22;54.41
69187;BME280;56301;56.864;60.554;2022-08-01T08:48:00;98297.06;;;24.18;54.37
69187;BME280;56301;56.864;60.554;2022-08-01T08:50:23;98298.91;;;24.18;54.79
69187;BME280;56301;56.864;60.554;2022-08-01T08:52:46;98297.63;;;24.14;54.70
69187;BME280;56301;56.864;60.554;2022-08-01T08:55:08;98293.91;;;24.15;54.42
69187;BME280;56301;56.864;60.554;2022-08-01T08:57:31;98294.75;;;24.15;54.83
69187;BME280;56301;56.864;60.554;2022-08-01T08:59:54;98299.78;;;24.18;55.01
69187;BME280;56301;56.864;60.554;2022-08-01T09:02:16;98298.06;;;24.17;54.78
69187;BME280;56301;56.864;60.554;2022-08-01T09:04:38;98303.88;;;24.14;54.09
69187;BME280;56301;56.864;60.554;2022-08-01T09:07:01;98301.75;;;24.10;53.93
69187;BME280;56301;56.864;60.554;2022-08-01T09:09:25;98303.25;;;24.12;55.24
69187;BME280;56301;56.864;60.554;2022-08-01T09:11:48;98301.44;;;24.19;54.41
69187;BME280;56301;56.864;60.554;2022-08-01T09:14:11;98308.41;;;23.77;52.56
69187;BME280;56301;56.864;60.554;2022-08-01T09:16:34;98305.97;;;23.23;52.72
69187;BME280;56301;56.864;60.554;2022-08-01T09:19:07;98311.41;;;22.86;52.34
69187;BME280;56301;56.864;60.554;2022-08-01T09:21:29;98300.75;;;22.92;54.43
69187;BME280;56301;56.864;60.554;2022-08-01T09:23:52;98299.00;;;22.99;54.95
69187;BME280;56301;56.864;60.554;2022-08-01T09:26:16;98299.00;;;22.91;54.85
69187;BME280;56301;56.864;60.554;2022-08-01T09:28:39;98296.47;;;22.98;55.74
69187;BME280;56301;56.864;60.554;2022-08-01T09:31:05;98298.44;;;23.19;57.00
69187;BME280;56301;56.864;60.554;2022-08-01T09:33:45;98298.66;;;23.32;57.75
69187;BME280;56301;56.864;60.554;2022-08-01T09:36:08;98296.41;;;23.36;58.22
69187;BME280;56301;56.864;60.554;2022-08-01T09:38:31;98290.44;;;23.40;58.92
69187;BME280;56301;56.864;60.554;2022-08-01T09:40:57;98303.75;;;23.42;59.05
69187;BME280;56301;56.864;60.554;2022-08-01T09:43:20;98287.19;;;23.45;59.10
69187;BME280;56301;56.864;60.554;2022-08-01T09:45:43;98298.44;;;23.48;58.74
69187;BME280;56301;56.864;60.554;2022-08-01T09:48:06;98295.47;;;23.58;57.94
69187;BME280;56301;56.864;60.554;2022-08-01T09:50:38;98293.34;;;23.68;57.29
69187;BME280;56301;56.864;60.554;2022-08-01T09:53:00;98288.88;;;23.75;56.99
69187;BME280;56301;56.864;60.554;2022-08-01T09:55:23;98294.84;;;23.86;57.01
69187;BME280;56301;56.864;60.554;2022-08-01T09:57:55;98295.09;;;23.91;56.85
69187;BME280;56301;56.864;60.554;2022-08-01T10:00:17;98301.56;;;23.96;56.06
69187;BME280;56301;56.864;60.554;2022-08-01T10:02:40;98305.78;;;23.99;56.17
69187;BME280;56301;56.864;60.554;2022-08-01T10:05:03;98305.41;;;24.02;55.66
69187;BME280;56301;56.864;60.554;2022-08-01T10:07:25;98310.44;;;24.05;55.19
69187;BME280;56301;56.864;60.554;2022-08-01T10:09:48;98302.94;;;24.07;55.69
69187;BME280;56301;56.864;60.554;2022-08-01T10:12:12;98310.06;;;24.08;55.50
69187;BME280;56301;56.864;60.554;2022-08-01T10:14:35;98306.31;;;24.09;55.01
69187;BME280;56301;56.864;60.554;2022-08-01T10:16:59;98307.97;;;24.10;55.13
69187;BME280;56301;56.864;60.554;2022-08-01T10:19:23;98307.22;;;24.16;55.08
69187;BME280;56301;56.864;60.554;2022-08-01T10:21:45;98310.59;;;24.18;54.71
69187;BME280;56301;56.864;60.554;2022-08-01T10:24:08;98317.28;;;24.22;54.99
69187;BME280;56301;56.864;60.554;2022-08-01T10:26:32;98310.63;;;24.25;54.48
69187;BME280;56301;56.864;60.554;2022-08-01T10:28:55;98305.69;;;24.29;55.03
69187;BME280;56301;56.864;60.554;2022-08-01T10:31:17;98318.19;;;24.30;54.16
69187;BME280;56301;56.864;60.554;2022-08-01T10:33:40;98310.72;;;24.32;54.34
69187;BME280;56301;56.864;60.554;2022-08-01T10:36:03;98316.13;;;24.32;54.46
69187;BME280;56301;56.864;60.554;2022-08-01T10:38:27;98321.16;;;24.35;54.50
69187;BME280;56301;56.864;60.554;2022-08-01T10:40:49;98316.78;;;24.34;54.68
69187;BME280;56301;56.864;60.554;2022-08-01T10:43:12;98314.25;;;24.32;54.23
69187;BME280;56301;56.864;60.554;2022-08-01T10:45:35;98323.41;;;24.31;54.23
69187;BME280;56301;56.864;60.554;2022-08-01T10:48:06;98318.19;;;24.30;54.51
69187;BME280;56301;56.864;60.554;2022-08-01T10:55:28;98327.63;;;23.83;53.43
69187;BME280;56301;56.864;60.554;2022-08-01T10:57:51;98328.44;;;23.39;52.72
69187;BME280;56301;56.864;60.554;2022-08-01T11:00:17;98337.81;;;23.13;53.54
69187;BME280;56301;56.864;60.554;2022-08-01T11:05:12;98340.06;;;23.24;55.92
69187;BME280;56301;56.864;60.554;2022-08-01T11:07:48;98339.72;;;23.42;56.18
69187;BME280;56301;56.864;60.554;2022-08-01T11:12:45;98333.44;;;23.57;57.81
69187;BME280;56301;56.864;60.554;2022-08-01T11:17:34;98336.91;;;23.65;59.00
69187;BME280;56301;56.864;60.554;2022-08-01T11:20:16;98337.69;;;23.74;58.59
69187;BME280;56301;56.864;60.554;2022-08-01T11:23:14;98329.94;;;23.86;57.39
69187;BME280;56301;56.864;60.554;2022-08-01T11:25:21;98336.25;;;23.93;56.97
69187;BME280;56301;56.864;60.554;2022-08-01T11:27:43;98347.97;;;24.00;56.76
69187;BME280;56301;56.864;60.554;2022-08-01T11:32:31;98336.72;;;24.11;55.84
69187;BME280;56301;56.864;60.554;2022-08-01T11:34:54;98339.00;;;24.14;56.04
69187;BME280;56301;56.864;60.554;2022-08-01T11:37:26;98334.91;;;24.18;55.82
69187;BME280;56301;56.864;60.554;2022-08-01T11:42:30;98335.28;;;24.15;55.26
69187;BME280;56301;56.864;60.554;2022-08-01T11:44:52;98342.75;;;24.13;55.25
69187;BME280;56301;56.864;60.554;2022-08-01T11:47:16;98354.22;;;24.15;55.19
69187;BME280;56301;56.864;60.554;2022-08-01T11:52:05;98350.72;;;24.21;54.92
69187;BME280;56301;56.864;60.554;2022-08-01T11:54:29;98352.97;;;24.18;54.71
69187;BME280;56301;56.864;60.554;2022-08-01T11:56:53;98347.56;;;24.18;54.08
69187;BME280;56301;56.864;60.554;2022-08-01T11:59:16;98348.81;;;24.15;54.48
69187;BME280;56301;56.864;60.554;2022-08-01T12:01:40;98353.63;;;24.20;54.39
69187;BME280;56301;56.864;60.554;2022-08-01T12:04:03;98357.56;;;24.17;54.44
69187;BME280;56301;56.864;60.554;2022-08-01T12:06:28;98345.06;;;24.16;53.90
69187;BME280;56301;56.864;60.554;2022-08-01T12:08:51;98351.50;;;24.15;53.06
69187;BME280;56301;56.864;60.554;2022-08-01T12:11:13;98351.31;;;24.17;54.18
69187;BME280;56301;56.864;60.554;2022-08-01T12:13:42;98355.06;;;24.16;53.80
69187;BME280;56301;56.864;60.554;2022-08-01T12:16:08;98350.47;;;24.16;54.02
69187;BME280;56301;56.864;60.554;2022-08-01T12:18:37;98356.91;;;24.15;53.88
69187;BME280;56301;56.864;60.554;2022-08-01T12:21:02;98358.59;;;24.16;54.42
69187;BME280;56301;56.864;60.554;2022-08-01T12:23:24;98362.31;;;24.15;53.68
69187;BME280;56301;56.864;60.554;2022-08-01T12:25:50;98362.13;;;24.17;54.67
69187;BME280;56301;56.864;60.554;2022-08-01T12:28:13;98363.31;;;24.14;53.83
69187;BME280;56301;56.864;60.554;2022-08-01T12:30:36;98381.25;;;24.15;54.21
69187;BME280;56301;56.864;60.554;2022-08-01T12:32:59;98371.25;;;24.16;54.33
69187;BME280;56301;56.864;60.554;2022-08-01T12:35:22;98371.72;;;24.19;54.13
69187;BME280;56301;56.864;60.554;2022-08-01T12:38:04;98378.81;;;24.20;53.94
69187;BME280;56301;56.864;60.554;2022-08-01T12:40:27;98381.72;;;24.19;53.91
69187;BME280;56301;56.864;60.554;2022-08-01T12:42:51;98377.50;;;24.16;54.16
69187;BME280;56301;56.864;60.554;2022-08-01T12:45:15;98391.69;;;24.18;53.70
69187;BME280;56301;56.864;60.554;2022-08-01T12:47:39;98395.41;;;24.17;53.29
69187;BME280;56301;56.864;60.554;2022-08-01T12:50:02;98393.72;;;24.16;54.47
69187;BME280;56301;56.864;60.554;2022-08-01T12:52:25;98389.81;;;24.19;54.37
69187;BME280;56301;56.864;60.554;2022-08-01T12:55:04;98399.78;;;24.18;53.77
69187;BME280;56301;56.864;60.554;2022-08-01T12:57:26;98392.31;;;24.20;53.63
69187;BME280;56301;56.864;60.554;2022-08-01T12:59:52;98390.00;;;24.17;53.37
69187;BME280;56301;56.864;60.554;2022-08-01T13:02:14;98396.06;;;24.19;53.70
69187;BME280;56301;56.864;60.554;2022-08-01T13:04:48;98398.84;;;24.26;54.47
69187;BME280;56301;56.864;60.554;2022-08-01T13:07:11;98398.84;;;24.26;52.69